Flight Track Log - Related Links

Times and Time Zones

All times are in EDT time to prevent confusion due to time zone crossing. See the EXS606 flight status page for this flight to view local times or setup timezone preferences in your user account.

Time Position Orientation Groundspeed Altitude Reporting Facility
EDT Latitude Longitude Course Direction KTS MPH feet Rate Location/Type
Sun 06:42:00 AM 37.2006 -4.4200 North  Level Estimated
Sun 06:43:00 AM 37.3057 -4.4040 North  Level Estimated
Sun 06:44:00 AM 37.4109 -4.3880 North  Level Estimated
Sun 06:45:00 AM 37.5160 -4.3720 North  Level Estimated
Sun 06:46:00 AM 37.6211 -4.3559 North  Level Estimated
Sun 06:47:00 AM 37.7249 -4.3400 North  Level Estimated
Sun 06:48:00 AM 37.8287 -4.3240 North  Level Estimated
Sun 06:49:00 AM 37.9324 -4.3080 North  Level Estimated
Sun 06:50:00 AM 38.0362 -4.2919 North  Level Estimated
Sun 06:51:00 AM 38.1400 -4.2758 North  Level Estimated
Sun 06:52:00 AM 38.2438 -4.2597 North  Level Estimated
Sun 06:53:00 AM 38.3475 -4.2435 North  Level Estimated
Sun 06:54:00 AM 38.4513 -4.2272 North  Level Estimated
Sun 06:55:00 AM 38.5550 -4.2109 North  Level Estimated
Sun 06:56:00 AM 38.6588 -4.1946 North  Level Estimated
Sun 06:57:00 AM 38.7625 -4.1782 North  Level Estimated
Sun 06:58:00 AM 38.8663 -4.1617 North  Level Estimated
Sun 06:59:00 AM 38.9700 -4.1453 North  Level Estimated
Sun 07:00:00 AM 39.0738 -4.1287 North  Level Estimated
Sun 07:01:00 AM 39.1775 -4.1122 North  Level Estimated
Sun 07:02:00 AM 39.2813 -4.0955 North  Level Estimated
Sun 07:03:00 AM 39.3850 -4.0788 North  Level Estimated
Sun 07:04:00 AM 39.4888 -4.0621 North  Level Estimated
Sun 07:05:00 AM 39.5925 -4.0453 North  Level Estimated
Sun 07:06:00 AM 39.6962 -4.0285 North  Level Estimated
Sun 07:07:00 AM 39.8000 -4.0116 North  Level Estimated
Sun 07:08:00 AM 39.9037 -3.9947 North  Level Estimated
Sun 07:09:00 AM 40.0074 -3.9777 North  Level Estimated
Sun 07:10:00 AM 40.1111 -3.9607 North  Level Estimated
Sun 07:11:00 AM 40.2149 -3.9436 North  Level Estimated
Sun 07:12:00 AM 40.3186 -3.9265 North  Level Estimated
Sun 07:13:00 AM 40.4223 -3.9093 North  Level Estimated
Sun 07:14:00 AM 40.5260 -3.8920 North  Level Estimated
Sun 07:15:00 AM 40.6297 -3.8747 North  Level Estimated
Sun 07:16:00 AM 40.7334 -3.8574 North  Level Estimated
Sun 07:17:00 AM 40.8371 -3.8400 North  Level Estimated
Sun 07:18:00 AM 40.9408 -3.8225 North  Level Estimated
Sun 07:19:00 AM 41.0445 -3.8050 North  Level Estimated
Sun 07:20:00 AM 41.1482 -3.7874 North  Level Estimated
Sun 07:21:00 AM 41.2519 -3.7698 North  Level Estimated
Sun 07:22:00 AM 41.3556 -3.7521 North  Level Estimated
Sun 07:23:00 AM 41.4593 -3.7344 North  Level Estimated
Sun 07:24:00 AM 41.5630 -3.7166 North  Level Estimated
Sun 07:25:00 AM 41.6667 -3.6987 North  Level Estimated
Sun 07:26:00 AM 41.7704 -3.6808 North  Level Estimated
Sun 07:27:00 AM 41.8741 -3.6628 North  Level Estimated
Sun 07:28:00 AM 41.9777 -3.6448 North  Level Estimated
Sun 07:29:00 AM 42.0814 -3.6267 North  Level Estimated
Sun 07:30:00 AM 42.1851 -3.6086 North  Level Estimated
Sun 07:31:00 AM 42.2887 -3.5904 North  Level Estimated
Sun 07:32:00 AM 42.3924 -3.5721 North  Level Estimated
Sun 07:33:00 AM 42.4961 -3.5538 North  Level Estimated
Sun 07:34:00 AM 42.5997 -3.5354 North  Level Estimated
Sun 07:35:00 AM 42.7034 -3.5169 North  Level Estimated
Sun 07:36:00 AM 42.8070 -3.4984 North  Level Estimated
Sun 07:37:00 AM 42.9107 -3.4799 North  Level Estimated
Sun 07:38:00 AM 43.0143 -3.4612 North  Level Estimated
Sun 07:39:00 AM 43.1180 -3.4425 North  Level Estimated
Sun 07:40:00 AM 43.2216 -3.4238 North  Level Estimated
Sun 07:41:00 AM 43.3252 -3.4049 North  Level Estimated
Sun 07:42:00 AM 43.4289 -3.3860 North  Level Estimated
Sun 07:43:00 AM 43.5325 -3.3671 North  Level Estimated
Sun 07:44:00 AM 43.6361 -3.3481 North  Level Estimated
Sun 07:45:00 AM 43.7398 -3.3290 North  Level Estimated
Sun 07:46:00 AM 43.8434 -3.3098 North  Level Estimated
Sun 07:47:00 AM 43.9470 -3.2906 North  Level Estimated
Sun 07:48:00 AM 44.0506 -3.2713 North  Level Estimated
Sun 07:49:00 AM 44.1542 -3.2520 North  Level Estimated
Sun 07:50:00 AM 44.2579 -3.2326 North  Level Estimated
Sun 07:51:00 AM 44.3615 -3.2131 North  Level Estimated
Sun 07:52:00 AM 44.4651 -3.1935 North  Level Estimated
Sun 07:53:00 AM 44.5687 -3.1739 North  Level Estimated
Sun 07:54:00 AM 44.6723 -3.1542 North  Level Estimated
Sun 07:55:00 AM 44.7758 -3.1344 North  Level Estimated
Sun 07:56:00 AM 44.8794 -3.1146 North  Level Estimated
Sun 07:57:00 AM 44.9830 -3.0947 North  Level Estimated
Sun 07:58:00 AM 45.0866 -3.0747 North  Level Estimated
Sun 07:59:00 AM 45.1902 -3.0547 North  Level Estimated
Sun 08:00:00 AM 45.2938 -3.0345 North  Level Estimated
Sun 08:01:00 AM 45.3973 -3.0143 North  Level Estimated
Sun 08:02:00 AM 45.5009 -2.9940 North  Level Estimated
Sun 08:03:00 AM 45.6045 -2.9737 North  Level Estimated
Sun 08:04:00 AM 45.7080 -2.9533 North  Level Estimated
Sun 08:05:00 AM 45.8116 -2.9328 North  Level Estimated
Sun 08:06:00 AM 45.9151 -2.9122 North  Level Estimated
Sun 08:07:00 AM 46.0187 -2.8915 North  Level Estimated
Sun 08:08:00 AM 46.1222 -2.8708 North  Level Estimated
Sun 08:09:00 AM 46.2258 -2.8500 North  Level Estimated
Sun 08:10:00 AM 46.3293 -2.8291 North  Level Estimated
Sun 08:11:00 AM 46.4328 -2.8081 North  Level Estimated
Sun 08:12:00 AM 46.5364 -2.7871 North  Level Estimated
Sun 08:13:00 AM 46.6399 -2.7659 North  Level Estimated
Sun 08:14:00 AM 46.7434 -2.7447 North  Level Estimated
Sun 08:15:00 AM 46.8469 -2.7234 North  Level Estimated
Sun 08:16:00 AM 46.9505 -2.7021 North  Level Estimated
Sun 08:17:00 AM 47.0540 -2.6806 North  Level Estimated
Sun 08:18:00 AM 47.1575 -2.6591 North  Level Estimated
Sun 08:19:00 AM 47.2610 -2.6374 North  Level Estimated
Sun 08:20:00 AM 47.3645 -2.6157 North  Level Estimated
Sun 08:21:00 AM 47.4680 -2.5940 North  Level Estimated
Sun 08:22:00 AM 47.5715 -2.5721 North  Level Estimated
Sun 08:23:00 AM 47.6749 -2.5501 North  Level Estimated
Sun 08:24:00 AM 47.7784 -2.5280 North  Level Estimated
Sun 08:25:00 AM 47.8819 -2.5059 North  Level Estimated
Sun 08:26:00 AM 47.9854 -2.4837 North  Level Estimated
Sun 08:27:00 AM 48.0888 -2.4614 North  Level Estimated
Sun 08:28:00 AM 48.1923 -2.4390 North  Level Estimated
Sun 08:29:00 AM 48.2958 -2.4165 North  Level Estimated
Sun 08:30:00 AM 48.3992 -2.3939 North  Level Estimated
Sun 08:31:00 AM 48.5027 -2.3712 North  Level Estimated
Sun 08:32:00 AM 48.6061 -2.3484 North  Level Estimated
Sun 08:33:00 AM 48.7096 -2.3255 North  Level Estimated
Sun 08:34:00 AM 48.8130 -2.3026 North  Level Estimated
Sun 08:35:00 AM 48.9165 -2.2795 North  Level Estimated
Sun 08:36:00 AM 49.0199 -2.2564 North  Level Estimated
Sun 08:37:00 AM 49.1233 -2.2331 North  Level Estimated
Sun 08:38:00 AM 49.2267 -2.2097 North  Level Estimated
Sun 08:39:00 AM 49.3301 -2.1863 North  Level Estimated
Sun 08:40:00 AM 49.4336 -2.1628 North  Level Estimated
Sun 08:41:00 AM 49.5370 -2.1391 North  Level Estimated
Sun 08:42:00 AM 49.6404 -2.1154 North  Level Estimated
Sun 08:43:00 AM 49.7438 -2.0915 North  Level Estimated
Sun 08:44:00 AM 49.8471 -2.0676 North  Level Estimated
Sun 08:45:00 AM 49.9505 -2.0435 North  Level Estimated
Sun 08:46:00 AM 50.0539 -2.0194 North  Level Estimated
Sun 08:47:00 AM 50.1573 -1.9951 North  Level Estimated
Sun 08:48:00 AM 50.2607 -1.9707 North  Level Estimated
Sun 08:49:00 AM 50.3640 -1.9463 North  Level Estimated
Sun 08:50:00 AM 50.4674 -1.9217 North  Level Estimated
Sun 08:51:00 AM 50.5708 -1.8970 North  Level Estimated
Sun 08:52:00 AM 50.6741 -1.8722 North  Level Estimated
Sun 08:53:00 AM 50.7775 -1.8473 North  Level Estimated
Sun 08:54:00 AM 50.8808 -1.8223 North  Level Estimated
Sun 08:55:00 AM 50.9841 -1.7972 North  Level Estimated
Sun 08:56:00 AM 51.0874 -1.7720 North  Level Estimated
Sun 08:57:00 AM 51.1908 -1.7466 North  Level Estimated
Sun 08:58:00 AM 51.2941 -1.7211 North  Level Estimated
Sun 08:59:00 AM 51.3974 -1.6956 North  Level Estimated
Sun 09:00:00 AM 51.5007 -1.6699 North  Level Estimated
Sun 09:01:00 AM 51.6040 -1.6441 North  Level Estimated
Sun 09:02:00 AM 51.7073 -1.6181 North  Level Estimated
Sun 09:03:00 AM 51.8106 -1.5921 North  Level Estimated
Sun 09:04:00 AM 51.9139 -1.5659 North  Level Estimated
Sun 09:05:00 AM 52.0172 -1.5396 North  Level Estimated
Sun 09:06:00 AM 52.1204 -1.5132 North  Level Estimated
Sun 09:07:00 AM 52.2237 -1.4867 North  Level Estimated
Sun 09:08:00 AM 52.3270 -1.4600 North  Level Estimated
Sun 09:09:00 AM 52.4302 -1.4332 North  Level Estimated
Sun 09:10:00 AM 52.5335 -1.4063 North  Level Estimated

Login

Don't have an account? Register now (free) for customized features, flight alerts, and more!